Crane Forest, South Carolina
Current Conditions -  °F | °C
As of 3:10 AM on Monday 24 Nov 2014 (Local Time) from KCUB Reporting Station
Broken Clouds Broken Clouds  
Wind Chill: 67°   Ceiling: 2300
Heat Index: 67°   Visibility: 10mi
Dew Point: 61°   Wind: 10mph
Humidity: 81%   Direction: 240°WSW
Pressure: 29.8"   Gusts: NA
Location:  34.1179°N, 81.0612°W
Report Text: KCUB 240810Z AUTO 24009KT 10SM BKN023 19/16 A2980 RMK AO2 T01940161
Loading
Personal Weather Stations






























Interactive Weather Map New forecast layout! Learn more

10-Day Weather Forecast

Advertisements
Track Severe Weather on mobile